Time;durP1;ratioP1;P1;durP2;ratioP2;P2;SDS_P1;SDS_P2;PMS_P1;PMS_P2;Temp;Humidity;BMP_temperature;BMP_pressure;BME280_temperature;BME280_humidity;BME280_pressure;Samples;Min_cycle;Max_cycle;Signal;HPM_P1;HPM_P2
2021/04/17 00:00:16;;;;;;;25.90;11.60;;;1.90;99.90;;;;;;4448910;28;654329;-71
2021/04/17 00:03:04;;;;;;;24.90;12.47;;;1.90;99.90;;;;;;4428261;28;654845;-72
2021/04/17 00:05:51;;;;;;;22.73;11.73;;;1.90;99.90;;;;;;4454599;28;654923;-71
2021/04/17 00:08:39;;;;;;;23.97;12.03;;;1.90;99.90;;;;;;4431599;28;653933;-71
2021/04/17 00:11:27;;;;;;;22.63;12.33;;;1.90;99.90;;;;;;4450098;28;654796;-72
2021/04/17 00:14:15;;;;;;;24.60;11.77;;;2.00;99.90;;;;;;4426611;28;655844;-72
2021/04/17 00:17:03;;;;;;;23.13;11.93;;;2.00;99.90;;;;;;4430605;28;654808;-71
2021/04/17 00:19:51;;;;;;;28.07;13.60;;;2.00;99.90;;;;;;4453236;28;655011;-71
2021/04/17 00:22:39;;;;;;;23.10;11.93;;;2.10;99.90;;;;;;4422144;28;654463;-72
2021/04/17 00:25:27;;;;;;;26.13;12.90;;;2.10;99.90;;;;;;4448922;28;655284;-73
2021/04/17 00:28:15;;;;;;;30.33;13.40;;;2.10;99.90;;;;;;4426638;28;655126;-72
2021/04/17 00:31:02;;;;;;;24.37;13.47;;;2.10;99.90;;;;;;4424267;28;654422;-71
2021/04/17 00:33:50;;;;;;;36.73;12.07;;;2.10;99.90;;;;;;4443039;28;655317;-73
2021/04/17 00:36:38;;;;;;;23.17;11.17;;;2.10;99.90;;;;;;4445615;28;654193;-70
2021/04/17 00:39:25;;;;;;;20.43;11.07;;;2.20;99.90;;;;;;4449933;28;655773;-71
2021/04/17 00:42:13;;;;;;;21.47;11.07;;;2.10;99.90;;;;;;4444433;28;655301;-71
2021/04/17 00:45:01;;;;;;;24.53;12.23;;;2.10;99.90;;;;;;4447569;28;655969;-72
2021/04/17 00:47:48;;;;;;;22.20;10.93;;;2.10;99.90;;;;;;4424812;28;655496;-71
2021/04/17 00:50:35;;;;;;;25.83;13.23;;;2.10;99.90;;;;;;4436909;28;656865;-71
2021/04/17 00:53:23;;;;;;;27.03;13.03;;;2.10;99.90;;;;;;4431228;28;655000;-71
2021/04/17 00:56:11;;;;;;;23.03;10.57;;;2.00;99.90;;;;;;4451365;28;656451;-72
2021/04/17 00:58:58;;;;;;;15.20;8.67;;;2.00;99.90;;;;;;4423090;28;655411;-71
2021/04/17 01:01:47;;;;;;;19.93;11.83;;;2.10;99.90;;;;;;4452769;28;654814;-72
2021/04/17 01:04:35;;;;;;;27.70;13.30;;;2.10;99.90;;;;;;4424859;28;656777;-71
2021/04/17 01:07:24;;;;;;;23.30;10.17;;;2.10;99.90;;;;;;4429012;28;655556;-71
2021/04/17 01:10:21;;;;;;;27.10;13.20;;;2.10;99.90;;;;;;4443442;28;655917;-71
2021/04/17 01:13:09;;;;;;;27.83;13.13;;;2.10;99.90;;;;;;4404616;28;655691;-71
2021/04/17 01:15:56;;;;;;;23.37;11.80;;;2.10;99.90;;;;;;4451163;28;655513;-71
2021/04/17 01:18:45;;;;;;;24.57;12.43;;;2.10;99.90;;;;;;4432234;28;655499;-71
2021/04/17 01:21:33;;;;;;;21.77;11.67;;;2.10;99.90;;;;;;4443613;28;655478;-71
2021/04/17 01:24:20;;;;;;;24.20;12.40;;;2.10;99.90;;;;;;4449970;28;656925;-71
2021/04/17 01:27:12;;;;;;;24.40;12.43;;;2.10;99.90;;;;;;4442760;28;655602;-71
2021/04/17 01:29:59;;;;;;;22.10;11.77;;;2.10;99.90;;;;;;4412311;28;656599;-71
2021/04/17 01:32:46;;;;;;;24.53;12.10;;;2.10;99.90;;;;;;4447483;28;655663;-72
2021/04/17 01:35:33;;;;;;;25.35;12.32;;;2.10;99.90;;;;;;4428692;28;655674;-71
2021/04/17 01:38:23;;;;;;;23.37;12.13;;;2.10;99.90;;;;;;4454910;28;655380;-71
2021/04/17 01:41:11;;;;;;;22.60;11.67;;;2.10;99.90;;;;;;4428405;28;656433;-72
2021/04/17 01:44:01;;;;;;;21.10;12.30;;;2.20;99.90;;;;;;4422459;28;656135;-72
2021/04/17 01:46:50;;;;;;;23.43;11.80;;;2.20;99.90;;;;;;4427140;28;655606;-72
2021/04/17 01:49:39;;;;;;;21.43;11.33;;;2.10;99.90;;;;;;4426625;28;655757;-71
2021/04/17 01:52:26;;;;;;;23.87;11.87;;;2.20;99.90;;;;;;4454941;28;655754;-72
2021/04/17 01:55:14;;;;;;;20.70;11.43;;;2.10;99.90;;;;;;4422266;28;655923;-71
2021/04/17 01:58:02;;;;;;;22.47;11.57;;;2.10;99.90;;;;;;4450664;28;655532;-72
2021/04/17 02:00:52;;;;;;;25.33;12.27;;;2.10;99.90;;;;;;4431560;28;656161;-71
2021/04/17 02:03:39;;;;;;;26.10;13.43;;;2.10;99.90;;;;;;4417261;28;656196;-71
2021/04/17 02:06:27;;;;;;;25.27;12.70;;;2.10;99.90;;;;;;4449753;28;655178;-72
2021/04/17 02:09:14;;;;;;;25.37;11.67;;;2.10;99.90;;;;;;4427204;28;656574;-71
2021/04/17 02:12:01;;;;;;;22.90;11.65;;;2.10;99.90;;;;;;4442128;28;655935;-72
2021/04/17 02:14:49;;;;;;;21.20;10.77;;;2.00;99.90;;;;;;4421444;28;655163;-72
2021/04/17 02:17:44;;;;;;;17.43;9.50;;;1.90;99.90;;;;;;4449482;28;656337;-72
2021/04/17 02:20:34;;;;;;;19.80;9.63;;;1.90;99.90;;;;;;4423465;28;654597;-72
2021/04/17 02:23:21;;;;;;;15.43;9.00;;;1.90;99.90;;;;;;4431196;28;654443;-72
2021/04/17 02:26:08;;;;;;;20.47;10.23;;;1.90;99.90;;;;;;4431513;28;654433;-71
2021/04/17 02:28:56;;;;;;;22.17;10.20;;;1.80;99.90;;;;;;4449431;28;655936;-71
2021/04/17 02:31:43;;;;;;;15.23;7.40;;;1.80;99.90;;;;;;4431150;28;655340;-71
2021/04/17 02:34:31;;;;;;;18.08;9.70;;;1.80;99.90;;;;;;4450926;28;654914;-72
2021/04/17 02:37:18;;;;;;;17.03;8.57;;;1.80;99.90;;;;;;4425011;28;654886;-72
2021/04/17 02:40:07;;;;;;;19.48;9.05;;;1.80;99.90;;;;;;4450180;28;656201;-72
2021/04/17 02:42:54;;;;;;;15.10;8.67;;;1.80;99.90;;;;;;4425630;28;655635;-71
2021/04/17 02:45:41;;;;;;;17.23;9.37;;;1.80;99.90;;;;;;4449697;28;654123;-72
2021/04/17 02:48:29;;;;;;;14.43;8.18;;;1.80;99.90;;;;;;4426275;28;654423;-71
2021/04/17 02:51:17;;;;;;;17.03;9.53;;;1.80;99.90;;;;;;4450395;28;654793;-72
2021/04/17 02:54:05;;;;;;;15.40;7.50;;;1.80;99.90;;;;;;4427743;28;655771;-71
2021/04/17 02:56:52;;;;;;;17.98;9.32;;;1.80;99.90;;;;;;4431008;28;655281;-71
2021/04/17 02:59:40;;;;;;;15.77;9.03;;;1.70;99.90;;;;;;4453935;28;655182;-71
2021/04/17 03:02:27;;;;;;;15.27;8.60;;;1.70;99.90;;;;;;4446195;28;654245;-71
2021/04/17 03:05:15;;;;;;;19.17;9.47;;;1.70;99.90;;;;;;4445431;28;655856;-72
2021/04/17 03:08:04;;;;;;;17.97;9.27;;;1.70;99.90;;;;;;4437307;28;654467;-71
2021/04/17 03:10:51;;;;;;;16.00;8.50;;;1.70;99.90;;;;;;4448431;28;654776;-71
2021/04/17 03:13:39;;;;;;;16.15;9.00;;;1.70;99.90;;;;;;4426413;28;654647;-71
2021/04/17 03:16:26;;;;;;;15.63;9.20;;;1.70;99.90;;;;;;4451005;28;655131;-72
2021/04/17 03:19:13;;;;;;;17.67;10.17;;;1.60;99.90;;;;;;4431022;28;654984;-71
2021/04/17 03:22:00;;;;;;;19.27;9.60;;;1.70;99.90;;;;;;4452733;28;656989;-72
2021/04/17 03:24:49;;;;;;;16.47;9.93;;;1.70;99.90;;;;;;4431497;28;654376;-71
2021/04/17 03:27:36;;;;;;;14.87;8.30;;;1.70;99.90;;;;;;4444918;28;655875;-71
2021/04/17 03:30:28;;;;;;;18.30;11.07;;;1.70;99.90;;;;;;4431513;28;654041;-72
2021/04/17 03:33:15;;;;;;;20.20;11.97;;;1.70;99.90;;;;;;4423224;28;656848;-72
2021/04/17 03:36:03;;;;;;;21.00;12.23;;;1.60;99.90;;;;;;4430355;28;655852;-71
2021/04/17 03:38:50;;;;;;;23.93;12.67;;;1.60;99.90;;;;;;4447067;28;656777;-72
2021/04/17 03:41:39;;;;;;;23.83;12.52;;;1.70;99.90;;;;;;4424704;28;655152;-71
2021/04/17 03:44:29;;;;;;;19.83;11.80;;;1.60;99.90;;;;;;4442292;28;656385;-72
2021/04/17 03:47:16;;;;;;;19.17;10.57;;;1.60;99.90;;;;;;4426429;28;655478;-72
2021/04/17 03:50:04;;;;;;;23.07;12.87;;;1.60;99.90;;;;;;4427947;28;655755;-71
2021/04/17 03:52:51;;;;;;;21.43;13.00;;;1.60;99.90;;;;;;4449235;28;655646;-71
2021/04/17 03:55:38;;;;;;;19.07;10.50;;;1.70;99.90;;;;;;4427387;28;655896;-71
2021/04/17 03:58:27;;;;;;;22.83;12.53;;;1.60;99.90;;;;;;4447650;28;655745;-71
2021/04/17 04:01:14;;;;;;;19.23;10.77;;;1.60;99.90;;;;;;4423777;28;655843;-72
2021/04/17 04:04:01;;;;;;;19.17;10.63;;;1.60;99.90;;;;;;4447593;28;656436;-71
2021/04/17 04:06:48;;;;;;;20.98;11.50;;;1.60;99.90;;;;;;4422298;28;655272;-71
2021/04/17 04:09:36;;;;;;;23.00;11.43;;;1.60;99.90;;;;;;4444683;28;656012;-71
2021/04/17 04:12:23;;;;;;;19.30;11.43;;;1.60;99.90;;;;;;4421985;28;655534;-70
2021/04/17 04:15:12;;;;;;;20.97;11.03;;;1.60;99.90;;;;;;4448604;28;656274;-71
2021/04/17 04:18:00;;;;;;;21.83;12.23;;;1.60;99.90;;;;;;4423383;28;656624;-72
2021/04/17 04:20:47;;;;;;;18.03;10.83;;;1.60;99.90;;;;;;4440875;28;655366;-71
2021/04/17 04:23:34;;;;;;;17.37;10.13;;;1.70;99.90;;;;;;4427904;28;656801;-72
2021/04/17 04:26:21;;;;;;;17.67;9.70;;;1.70;99.90;;;;;;4451461;28;655726;-71
2021/04/17 04:29:09;;;;;;;16.67;9.93;;;1.70;99.90;;;;;;4417234;28;655069;-71
2021/04/17 04:31:57;;;;;;;17.17;10.40;;;1.70;99.90;;;;;;4456854;28;654665;-71
2021/04/17 04:34:44;;;;;;;16.47;9.50;;;1.70;99.90;;;;;;4423557;28;656569;-71
2021/04/17 04:37:32;;;;;;;16.92;10.02;;;1.70;99.90;;;;;;4452174;28;654383;-71
2021/04/17 04:40:19;;;;;;;16.93;9.90;;;1.70;99.90;;;;;;4427580;28;655387;-71
2021/04/17 04:43:06;;;;;;;18.70;10.10;;;1.70;99.90;;;;;;4453560;28;654843;-71
2021/04/17 04:45:53;;;;;;;18.13;9.87;;;1.70;99.90;;;;;;4431112;28;655850;-71
2021/04/17 04:48:42;;;;;;;16.70;10.13;;;1.70;99.90;;;;;;4452383;28;655198;-72
2021/04/17 04:51:30;;;;;;;16.67;9.23;;;1.70;99.90;;;;;;4433119;28;655542;-71
2021/04/17 04:54:17;;;;;;;22.27;12.17;;;1.80;99.90;;;;;;4432531;28;654466;-71
2021/04/17 04:57:05;;;;;;;16.00;10.37;;;1.80;99.90;;;;;;4452871;28;656598;-71
2021/04/17 04:59:52;;;;;;;21.15;10.77;;;1.80;99.90;;;;;;4425390;28;655556;-71
2021/04/17 05:02:40;;;;;;;14.97;8.93;;;1.80;99.90;;;;;;4451644;28;656974;-71
2021/04/17 05:05:28;;;;;;;22.70;12.27;;;1.90;99.90;;;;;;4439978;28;655225;-71
2021/04/17 05:08:16;;;;;;;20.60;11.17;;;1.90;99.90;;;;;;4451356;28;656089;-71
2021/04/17 05:11:04;;;;;;;20.70;11.80;;;2.00;99.90;;;;;;4426766;28;655499;-71
2021/04/17 05:13:52;;;;;;;21.20;12.30;;;2.00;99.90;;;;;;4451576;28;655526;-72
2021/04/17 05:16:39;;;;;;;23.97;12.00;;;2.00;99.90;;;;;;4426040;28;655432;-71
2021/04/17 05:19:26;;;;;;;21.40;11.73;;;2.10;99.90;;;;;;4455649;28;655315;-71
2021/04/17 05:22:15;;;;;;;21.07;10.97;;;2.10;99.90;;;;;;4425185;28;655322;-71
2021/04/17 05:25:03;;;;;;;27.67;13.67;;;2.10;99.90;;;;;;4448289;28;655691;-71
2021/04/17 05:27:50;;;;;;;33.00;15.67;;;2.00;99.90;;;;;;4450903;28;656529;-71
2021/04/17 05:30:37;;;;;;;31.48;15.93;;;2.10;99.90;;;;;;4435744;28;656010;-70
2021/04/17 05:33:25;;;;;;;24.90;13.53;;;2.10;99.90;;;;;;4454469;28;656562;-71
2021/04/17 05:36:12;;;;;;;29.77;15.60;;;2.10;99.90;;;;;;4445998;28;655237;-72
2021/04/17 05:39:01;;;;;;;32.60;15.93;;;2.20;99.90;;;;;;4454542;28;655702;-71
2021/04/17 05:41:48;;;;;;;32.87;16.77;;;2.20;99.90;;;;;;4429776;28;655602;-71
2021/04/17 05:44:35;;;;;;;28.50;13.77;;;2.10;99.90;;;;;;4452608;28;656281;-71
2021/04/17 05:47:23;;;;;;;36.27;17.23;;;2.10;99.90;;;;;;4424913;28;655498;-70
2021/04/17 05:50:11;;;;;;;37.40;18.27;;;2.10;99.90;;;;;;4450997;28;656861;-71
2021/04/17 05:52:58;;;;;;;33.47;16.77;;;2.20;99.90;;;;;;4429958;28;655883;-71
2021/04/17 05:55:46;;;;;;;38.77;18.07;;;2.10;99.90;;;;;;4447634;28;655984;-73
2021/04/17 05:58:33;;;;;;;33.20;17.53;;;2.20;99.90;;;;;;4430466;28;655759;-71
2021/04/17 06:01:21;;;;;;;35.97;16.87;;;2.30;99.90;;;;;;4454375;28;656376;-72
2021/04/17 06:04:08;;;;;;;34.23;16.73;;;2.30;99.90;;;;;;4424974;28;655535;-71
2021/04/17 06:10:37;;;;;;;37.50;16.17;;;2.40;99.90;;;;;;4449505;28;654517;-71
2021/04/17 06:13:25;;;;;;;38.17;16.17;;;2.40;99.90;;;;;;4413380;28;656797;-70
2021/04/17 06:16:12;;;;;;;40.13;17.63;;;2.40;99.90;;;;;;4440902;28;655606;-70
2021/04/17 06:19:00;;;;;;;30.97;14.90;;;2.40;99.90;;;;;;4454219;28;656157;-69
2021/04/17 06:21:47;;;;;;;33.83;17.27;;;2.50;99.90;;;;;;4441863;28;656519;-69
2021/04/17 06:24:35;;;;;;;34.87;16.00;;;2.50;99.90;;;;;;4450289;28;656465;-69
2021/04/17 06:27:22;;;;;;;39.47;18.17;;;2.50;99.90;;;;;;4447351;28;655953;-69
2021/04/17 06:30:12;;;;;;;43.10;19.07;;;2.50;99.90;;;;;;4452808;28;655806;-69
2021/04/17 06:32:59;;;;;;;38.07;17.87;;;2.50;99.90;;;;;;4420772;28;656707;-69
2021/04/17 06:35:46;;;;;;;33.77;16.87;;;2.50;99.90;;;;;;4448383;28;656495;-69
2021/04/17 06:38:33;;;;;;;43.10;19.20;;;2.60;99.90;;;;;;4421459;28;655249;-69
2021/04/17 06:41:21;;;;;;;42.28;19.58;;;2.60;99.90;;;;;;4451950;28;655878;-70
2021/04/17 06:44:08;;;;;;;39.90;18.47;;;2.60;99.90;;;;;;4421709;28;655652;-69
2021/04/17 06:46:58;;;;;;;44.20;19.60;;;2.70;99.90;;;;;;4449692;28;655743;-69
2021/04/17 06:49:45;;;;;;;39.90;18.40;;;2.70;99.90;;;;;;4426664;28;655975;-69
2021/04/17 06:52:32;;;;;;;44.70;20.85;;;2.70;99.90;;;;;;4431291;28;655935;-70
2021/04/17 06:55:20;;;;;;;34.83;13.93;;;2.70;99.90;;;;;;4448628;28;656415;-70
2021/04/17 06:58:07;;;;;;;47.87;21.37;;;2.70;99.90;;;;;;4449127;28;656016;-70
2021/04/17 07:00:54;;;;;;;41.27;19.60;;;2.80;99.90;;;;;;4426038;28;656602;-69
2021/04/17 07:03:42;;;;;;;45.07;17.73;;;2.80;99.90;;;;;;4447481;28;655472;-70
2021/04/17 07:06:38;;;;;;;43.78;20.08;;;2.80;99.90;;;;;;4430339;28;655794;-68
2021/04/17 07:09:25;;;;;;;49.47;20.17;;;2.80;99.90;;;;;;4425354;28;656325;-69
2021/04/17 07:12:13;;;;;;;54.03;22.77;;;2.90;99.90;;;;;;4431391;28;655931;-69
2021/04/17 07:15:04;;;;;;;52.43;22.63;;;2.80;99.90;;;;;;4449855;28;657079;-69
2021/04/17 07:17:51;;;;;;;53.23;22.60;;;2.90;99.90;;;;;;4420984;28;656074;-69
2021/04/17 07:20:39;;;;;;;46.58;21.52;;;3.00;99.90;;;;;;4429510;28;655207;-69
2021/04/17 07:23:45;;;;;;;43.73;19.57;;;3.10;99.90;;;;;;4443384;28;655403;-69
2021/04/17 07:26:32;;;;;;;48.77;22.00;;;3.10;99.90;;;;;;4448075;28;656139;-70
2021/04/17 07:29:20;;;;;;;49.67;21.37;;;3.10;99.90;;;;;;4453219;28;656617;-70
2021/04/17 07:32:16;;;;;;;44.60;21.33;;;3.10;99.90;;;;;;4435045;28;655878;-71
2021/04/17 07:35:14;;;;;;;48.97;22.70;;;3.10;99.90;;;;;;4419078;28;655687;-70
2021/04/17 07:38:10;;;;;;;45.07;20.83;;;3.20;99.90;;;;;;4425086;28;655542;-71
2021/04/17 07:41:03;;;;;;;45.23;20.00;;;3.10;99.90;;;;;;4421773;28;655978;-71
2021/04/17 07:43:52;;;;;;;46.20;21.58;;;3.10;99.90;;;;;;4426311;28;657045;-72
2021/04/17 07:46:42;;;;;;;40.20;20.07;;;3.10;99.90;;;;;;4423548;28;656808;-72
2021/04/17 07:49:29;;;;;;;51.87;21.27;;;3.10;99.90;;;;;;4424901;28;656610;-71
2021/04/17 07:52:16;;;;;;;46.90;21.57;;;3.20;99.90;;;;;;4449099;28;655599;-71
2021/04/17 07:55:06;;;;;;;44.23;21.30;;;3.20;99.90;;;;;;4423158;28;655405;-71
2021/04/17 07:57:55;;;;;;;53.03;24.23;;;3.30;99.90;;;;;;4427995;28;655469;-71
2021/04/17 08:00:42;;;;;;;41.47;20.60;;;3.30;99.90;;;;;;4429381;28;655439;-70
2021/04/17 08:03:30;;;;;;;46.53;21.13;;;3.40;99.90;;;;;;4448370;28;656855;-72
2021/04/17 08:06:17;;;;;;;49.63;22.10;;;3.40;99.90;;;;;;4438553;28;655286;-70
2021/04/17 08:09:05;;;;;;;46.13;20.73;;;3.30;99.90;;;;;;4449424;28;656511;-70
2021/04/17 08:11:55;;;;;;;52.90;22.47;;;3.30;99.90;;;;;;4425721;28;655998;-70
2021/04/17 08:14:43;;;;;;;47.60;22.08;;;3.30;99.90;;;;;;4429509;28;655471;-70
2021/04/17 08:17:30;;;;;;;56.43;24.27;;;3.30;99.90;;;;;;4443404;28;656282;-71
2021/04/17 08:20:18;;;;;;;52.17;24.50;;;3.30;99.90;;;;;;4438843;28;655822;-70
2021/04/17 08:23:05;;;;;;;52.23;23.47;;;3.20;99.90;;;;;;4444997;28;656332;-71
2021/04/17 08:25:53;;;;;;;50.30;23.30;;;3.30;99.90;;;;;;4421918;28;655569;-70
2021/04/17 08:28:41;;;;;;;52.20;22.03;;;3.30;99.90;;;;;;4444987;28;657046;-71
2021/04/17 08:31:31;;;;;;;42.30;18.30;;;3.40;99.90;;;;;;4418292;28;656173;-70
2021/04/17 08:34:19;;;;;;;48.47;22.40;;;3.40;99.90;;;;;;4429752;28;655774;-71
2021/04/17 08:37:07;;;;;;;53.10;22.10;;;3.40;99.90;;;;;;4440805;28;654991;-71
2021/04/17 08:39:54;;;;;;;52.73;23.27;;;3.30;99.90;;;;;;4429551;28;655454;-71
2021/04/17 08:42:45;;;;;;;58.17;23.00;;;3.30;99.90;;;;;;4447351;28;655425;-71
2021/04/17 08:45:34;;;;;;;53.37;21.43;;;3.30;99.90;;;;;;4447437;28;655389;-71
2021/04/17 08:48:21;;;;;;;32.83;15.10;;;3.30;99.90;;;;;;4442472;28;656143;-71
2021/04/17 08:51:30;;;;;;;39.73;19.30;;;3.30;99.90;;;;;;4422152;28;655323;-70
2021/04/17 08:54:19;;;;;;;41.30;19.77;;;3.30;99.90;;;;;;4417268;28;655602;-71
2021/04/17 08:57:14;;;;;;;41.00;19.17;;;3.30;99.90;;;;;;4438533;28;655760;-71
2021/04/17 09:00:01;;;;;;;40.87;19.63;;;3.30;99.90;;;;;;4424312;28;655951;-71
2021/04/17 09:02:50;;;;;;;42.00;19.80;;;3.30;99.90;;;;;;4422247;28;655692;-72
2021/04/17 09:05:44;;;;;;;38.30;18.53;;;3.30;99.90;;;;;;4437267;28;655883;-69
2021/04/17 09:08:31;;;;;;;37.13;16.90;;;3.30;99.90;;;;;;4421147;28;655740;-72
2021/04/17 09:11:34;;;;;;;32.40;15.70;;;3.30;99.90;;;;;;4419418;28;655504;-72
2021/04/17 09:14:59;;;;;;;27.97;14.57;;;3.20;99.90;;;;;;4424677;28;656296;-71
2021/04/17 09:17:48;;;;;;;38.27;18.53;;;3.30;99.90;;;;;;4428171;28;655983;-71
2021/04/17 09:20:38;;;;;;;41.00;19.70;;;3.30;99.90;;;;;;4416007;28;656316;-72
2021/04/17 09:23:36;;;;;;;38.37;19.70;;;3.30;99.90;;;;;;4427915;28;655388;-72
2021/04/17 09:26:45;;;;;;;37.83;19.50;;;3.40;99.90;;;;;;4399581;28;655625;-71
2021/04/17 09:29:32;;;;;;;38.83;20.60;;;3.40;99.90;;;;;;4412829;28;656484;-72
2021/04/17 09:32:19;;;;;;;37.87;17.83;;;3.40;99.90;;;;;;4432761;28;656329;-70
2021/04/17 09:35:13;;;;;;;35.60;18.30;;;3.40;99.90;;;;;;4455147;28;655016;-71
2021/04/17 09:38:19;;;;;;;44.57;19.73;;;3.40;99.90;;;;;;4429019;28;656294;-70
2021/04/17 09:41:06;;;;;;;37.57;18.67;;;3.40;99.90;;;;;;4420593;28;655547;-71
2021/04/17 09:43:56;;;;;;;38.27;18.97;;;3.50;99.90;;;;;;4432258;28;655510;-70
2021/04/17 09:46:43;;;;;;;36.40;17.70;;;3.60;99.90;;;;;;4425269;28;655319;-71
2021/04/17 09:49:38;;;;;;;31.77;16.07;;;3.60;99.90;;;;;;4440989;28;656375;-70
2021/04/17 09:52:26;;;;;;;33.50;17.87;;;3.60;99.90;;;;;;4419662;28;656324;-71
2021/04/17 09:55:14;;;;;;;37.33;17.63;;;3.60;99.90;;;;;;4430757;28;656168;-70
2021/04/17 09:58:01;;;;;;;28.70;15.43;;;3.60;99.90;;;;;;4455851;28;655412;-70
2021/04/17 10:00:49;;;;;;;33.43;16.70;;;3.70;99.90;;;;;;4426638;28;655989;-70
2021/04/17 10:03:37;;;;;;;27.47;14.27;;;3.70;99.90;;;;;;4451932;28;655814;-70
2021/04/17 10:06:25;;;;;;;31.10;16.33;;;3.70;99.90;;;;;;4426289;28;655451;-71
2021/04/17 10:09:15;;;;;;;30.05;16.40;;;3.70;99.90;;;;;;4431686;28;655538;-70
2021/04/17 10:12:07;;;;;;;31.80;16.73;;;3.70;99.90;;;;;;4435131;28;655546;-70
2021/04/17 10:15:10;;;;;;;27.57;14.07;;;3.70;99.90;;;;;;4428167;28;656186;-71
2021/04/17 10:17:59;;;;;;;32.50;16.70;;;3.70;99.90;;;;;;4412980;28;656044;-70
2021/04/17 10:20:46;;;;;;;34.10;17.30;;;3.70;99.90;;;;;;4443813;28;655594;-70
2021/04/17 10:23:33;;;;;;;37.45;19.15;;;3.70;99.90;;;;;;4428446;28;655460;-70
2021/04/17 10:26:20;;;;;;;31.57;16.57;;;3.70;99.90;;;;;;4449042;28;656426;-71
2021/04/17 10:29:09;;;;;;;34.77;17.87;;;3.80;99.90;;;;;;4419631;28;655803;-71
2021/04/17 10:32:00;;;;;;;40.43;20.63;;;3.70;99.90;;;;;;4441795;28;655433;-71
2021/04/17 10:34:48;;;;;;;39.10;17.27;;;3.70;99.90;;;;;;4447739;28;655582;-71
2021/04/17 10:37:40;;;;;;;38.70;19.97;;;3.60;99.90;;;;;;4442170;28;656266;-71
2021/04/17 10:40:27;;;;;;;43.07;20.87;;;3.60;99.90;;;;;;4421251;28;655544;-71
2021/04/17 10:43:17;;;;;;;35.43;18.77;;;3.50;99.90;;;;;;4426661;28;656975;-71
2021/04/17 10:46:05;;;;;;;44.90;21.10;;;3.50;99.90;;;;;;4428856;28;655766;-72
2021/04/17 10:48:53;;;;;;;39.73;19.87;;;3.60;99.90;;;;;;4424337;28;655710;-71
2021/04/17 10:51:40;;;;;;;35.23;16.47;;;3.80;99.90;;;;;;4454068;28;656246;-71
2021/04/17 10:54:28;;;;;;;40.27;19.27;;;3.80;99.90;;;;;;4427738;28;655955;-70
2021/04/17 10:57:15;;;;;;;39.17;20.43;;;3.80;99.90;;;;;;4435575;28;656419;-70
2021/04/17 11:00:05;;;;;;;37.67;17.03;;;4.00;99.90;;;;;;4440001;28;655434;-70
2021/04/17 11:02:53;;;;;;;38.27;20.83;;;4.00;99.90;;;;;;4442826;28;655368;-70
2021/04/17 11:05:41;;;;;;;41.07;20.87;;;4.00;99.90;;;;;;4453379;28;656534;-71
2021/04/17 11:08:31;;;;;;;40.33;20.70;;;4.00;99.90;;;;;;4431025;28;655648;-70
2021/04/17 11:11:20;;;;;;;36.93;18.97;;;4.20;99.90;;;;;;4430836;28;655788;-70
2021/04/17 11:14:07;;;;;;;36.03;17.73;;;4.30;99.90;;;;;;4441171;28;655404;-71
2021/04/17 11:16:55;;;;;;;37.43;18.30;;;4.40;99.90;;;;;;4451847;28;655966;-70
2021/04/17 11:19:44;;;;;;;36.40;19.00;;;4.40;99.90;;;;;;4437519;28;655516;-70
2021/04/17 11:22:35;;;;;;;34.97;17.57;;;4.40;99.90;;;;;;4448182;28;656005;-71
2021/04/17 11:25:22;;;;;;;33.63;16.93;;;4.30;99.90;;;;;;4409401;28;655792;-70
2021/04/17 11:28:10;;;;;;;31.07;16.43;;;4.50;99.90;;;;;;4452366;28;655571;-71
2021/04/17 11:30:57;;;;;;;32.80;16.97;;;4.60;99.90;;;;;;4447233;28;656431;-71
2021/04/17 11:33:46;;;;;;;33.23;17.20;;;4.60;99.90;;;;;;4451903;28;656427;-71
2021/04/17 11:36:34;;;;;;;30.93;15.50;;;4.70;99.90;;;;;;4429090;28;655950;-71
2021/04/17 11:39:21;;;;;;;31.90;16.75;;;4.70;99.90;;;;;;4441263;28;655987;-72
2021/04/17 11:42:10;;;;;;;34.87;17.43;;;4.70;99.90;;;;;;4425279;28;655283;-71
2021/04/17 11:44:59;;;;;;;32.43;15.73;;;4.60;99.90;;;;;;4428074;28;656367;-71
2021/04/17 11:47:46;;;;;;;28.20;15.50;;;4.60;99.90;;;;;;4448109;28;655978;-71
2021/04/17 11:50:34;;;;;;;31.50;14.70;;;4.60;99.90;;;;;;4429256;28;655729;-70
2021/04/17 11:53:22;;;;;;;33.57;16.17;;;4.60;99.90;;;;;;4435744;28;656281;-71
2021/04/17 11:56:09;;;;;;;31.40;15.67;;;4.40;99.90;;;;;;4425790;28;656752;-70
2021/04/17 11:58:56;;;;;;;30.67;16.20;;;4.40;99.90;;;;;;4450801;28;654958;-71
2021/04/17 12:01:43;;;;;;;35.07;15.50;;;4.40;99.90;;;;;;4428630;28;655831;-71
2021/04/17 12:04:31;;;;;;;28.53;15.77;;;4.50;99.90;;;;;;4448139;28;655674;-72
2021/04/17 12:07:20;;;;;;;27.77;15.57;;;4.50;99.90;;;;;;4426163;28;656484;-70
2021/04/17 12:10:09;;;;;;;31.00;16.37;;;4.50;99.90;;;;;;4422523;28;655545;-70
2021/04/17 12:12:57;;;;;;;34.95;17.33;;;4.60;99.90;;;;;;4447428;28;656444;-72
2021/04/17 12:15:45;;;;;;;35.83;17.87;;;4.60;99.90;;;;;;4428956;28;655663;-70
2021/04/17 12:18:33;;;;;;;35.60;17.60;;;4.80;99.90;;;;;;4427614;28;656655;-71
2021/04/17 12:21:20;;;;;;;31.97;16.90;;;4.80;99.90;;;;;;4451771;28;655170;-72
2021/04/17 12:24:09;;;;;;;36.77;17.13;;;4.80;99.90;;;;;;4427389;28;655932;-70
2021/04/17 12:26:57;;;;;;;32.73;18.17;;;4.80;99.90;;;;;;4448660;28;655305;-71
2021/04/17 12:29:45;;;;;;;31.47;17.43;;;4.70;99.90;;;;;;4425897;28;656424;-70
2021/04/17 12:32:32;;;;;;;36.60;17.67;;;4.80;99.90;;;;;;4447488;28;655636;-71
2021/04/17 12:35:21;;;;;;;33.63;17.73;;;4.90;99.90;;;;;;4444919;28;657164;-71
2021/04/17 12:38:08;;;;;;;34.77;17.80;;;4.90;99.90;;;;;;4421126;28;656774;-71
2021/04/17 12:40:56;;;;;;;36.93;18.33;;;4.80;99.90;;;;;;4448080;28;655807;-71
2021/04/17 12:43:44;;;;;;;42.03;19.97;;;4.80;99.90;;;;;;4432108;28;655796;-71
2021/04/17 12:46:31;;;;;;;35.03;18.67;;;4.80;99.90;;;;;;4450519;28;655802;-72
2021/04/17 12:49:19;;;;;;;38.90;18.90;;;4.70;99.90;;;;;;4425999;28;655496;-71
2021/04/17 12:52:06;;;;;;;39.88;20.42;;;4.60;99.90;;;;;;4447697;28;655403;-71
2021/04/17 12:54:53;;;;;;;39.90;19.93;;;4.50;99.90;;;;;;4424370;28;655343;-70
2021/04/17 12:57:41;;;;;;;40.17;20.30;;;4.60;99.90;;;;;;4443364;28;656401;-71
2021/04/17 13:00:30;;;;;;;41.77;21.93;;;4.50;99.90;;;;;;4431944;28;655393;-71
2021/04/17 13:03:18;;;;;;;45.90;21.90;;;4.60;99.90;;;;;;4424845;28;655961;-71
2021/04/17 13:06:06;;;;;;;43.93;22.23;;;4.60;99.90;;;;;;4450456;28;656240;-71
2021/04/17 13:08:53;;;;;;;46.70;25.20;;;4.70;99.90;;;;;;4429786;28;655655;-71
2021/04/17 13:11:40;;;;;;;48.87;24.00;;;4.70;99.90;;;;;;4454340;28;655593;-71
2021/04/17 13:14:28;;;;;;;52.03;26.27;;;4.80;99.90;;;;;;4427243;28;655375;-70
2021/04/17 13:17:18;;;;;;;53.73;26.93;;;4.90;99.90;;;;;;4448929;28;656718;-70
2021/04/17 13:20:06;;;;;;;52.30;25.57;;;4.80;99.90;;;;;;4431312;28;656662;-70
2021/04/17 13:22:55;;;;;;;53.37;25.30;;;4.80;99.90;;;;;;4433115;28;655910;-70
2021/04/17 13:25:43;;;;;;;50.47;25.25;;;4.90;99.90;;;;;;4429164;28;655842;-71
2021/04/17 13:28:30;;;;;;;49.20;24.00;;;4.80;99.90;;;;;;4455274;28;656219;-70
2021/04/17 13:31:17;;;;;;;55.27;25.17;;;4.90;99.90;;;;;;4427642;28;655673;-71
2021/04/17 13:34:06;;;;;;;49.07;24.63;;;4.80;99.90;;;;;;4455089;28;656250;-70
2021/04/17 13:36:54;;;;;;;57.77;27.90;;;4.70;99.90;;;;;;4432121;28;655507;-70
2021/04/17 13:39:41;;;;;;;51.93;25.90;;;4.70;99.90;;;;;;4439259;28;655617;-70
2021/04/17 13:42:28;;;;;;;47.43;24.77;;;4.70;99.90;;;;;;4432173;28;655432;-70
2021/04/17 13:45:16;;;;;;;47.40;24.13;;;4.70;99.90;;;;;;4443952;28;656210;-70
2021/04/17 13:48:03;;;;;;;57.73;26.77;;;4.70;99.90;;;;;;4431528;28;655382;-70
2021/04/17 13:50:51;;;;;;;56.70;27.10;;;4.80;99.90;;;;;;4450114;28;656501;-70
2021/04/17 13:53:39;;;;;;;52.00;25.87;;;4.80;99.90;;;;;;4421361;28;655771;-71
2021/04/17 13:56:26;;;;;;;51.90;26.93;;;4.90;99.90;;;;;;4443695;28;655358;-70
2021/04/17 13:59:13;;;;;;;56.70;29.40;;;4.70;99.90;;;;;;4425557;28;656139;-70
2021/04/17 14:02:01;;;;;;;51.43;26.10;;;4.70;99.90;;;;;;4449484;28;656523;-70
2021/04/17 14:04:48;;;;;;;57.33;26.13;;;4.70;99.90;;;;;;4429453;28;655679;-70
2021/04/17 14:07:37;;;;;;;53.70;24.90;;;4.70;99.90;;;;;;4444304;28;657038;-70
2021/04/17 14:10:25;;;;;;;48.53;23.63;;;4.80;99.90;;;;;;4426180;28;655808;-70
2021/04/17 14:13:13;;;;;;;52.42;23.95;;;4.80;99.90;;;;;;4432518;28;655495;-69
2021/04/17 14:16:00;;;;;;;51.03;25.40;;;4.90;99.90;;;;;;4441137;28;657018;-70
2021/04/17 14:18:48;;;;;;;51.53;25.23;;;4.90;99.90;;;;;;4433555;28;655705;-70